createdAt,value
2018-07-06T00:00:35.312Z,87.21
2018-07-06T00:03:15.087Z,87.34
2018-07-06T00:05:54.742Z,86.89
2018-07-06T00:08:34.508Z,86.69
2018-07-06T00:11:14.259Z,86.61
2018-07-06T00:13:54.170Z,86.30
2018-07-06T00:16:34.040Z,86.55
2018-07-06T00:19:13.716Z,87.55
2018-07-06T00:21:53.451Z,88.07
2018-07-06T00:24:33.079Z,87.08
2018-07-06T00:27:12.971Z,87.07
2018-07-06T00:29:52.692Z,86.67
2018-07-06T00:32:32.498Z,86.50
2018-07-06T00:35:12.216Z,87.16
2018-07-06T00:37:52.002Z,86.58
2018-07-06T00:40:31.818Z,86.33
2018-07-06T00:43:11.594Z,85.69
2018-07-06T00:45:51.356Z,85.06
2018-07-06T00:48:31.139Z,86.10
2018-07-06T00:51:10.855Z,85.98
2018-07-06T00:53:50.586Z,86.12
2018-07-06T00:56:30.193Z,86.47
2018-07-06T00:59:09.975Z,86.14
2018-07-06T01:01:49.847Z,85.56
2018-07-06T01:04:29.411Z,86.06
2018-07-06T01:07:08.958Z,86.08
2018-07-06T01:09:48.571Z,85.08
2018-07-06T01:13:31.191Z,85.95
2018-07-06T01:16:10.755Z,85.66
2018-07-06T01:18:50.497Z,87.08
2018-07-06T01:21:30.100Z,87.84
2018-07-06T01:24:09.835Z,88.39
2018-07-06T01:26:49.682Z,89.33
2018-07-06T01:29:29.343Z,89.85
2018-07-06T01:32:09.046Z,90.41
2018-07-06T01:34:48.779Z,89.56
2018-07-06T01:37:28.621Z,89.46
2018-07-06T01:40:08.444Z,91.16
2018-07-06T01:42:48.224Z,91.60
2018-07-06T01:45:27.881Z,91.76
2018-07-06T01:48:07.452Z,91.83
2018-07-06T01:50:47.285Z,92.11
2018-07-06T01:53:27.027Z,92.28
2018-07-06T01:56:06.839Z,91.97
2018-07-06T01:58:46.588Z,90.50
2018-07-06T02:01:26.243Z,90.67
2018-07-06T02:04:05.787Z,90.76
2018-07-06T02:06:45.675Z,90.73
2018-07-06T02:09:25.526Z,89.64
2018-07-06T02:12:05.222Z,91.35
2018-07-06T02:14:44.786Z,91.11
2018-07-06T02:17:24.491Z,90.55
2018-07-06T02:20:04.040Z,91.82
2018-07-06T02:22:43.782Z,92.18
2018-07-06T02:25:23.369Z,92.90
2018-07-06T02:28:02.938Z,93.46
2018-07-06T02:30:42.786Z,93.39
2018-07-06T02:33:22.669Z,93.40
2018-07-06T02:36:02.462Z,93.33
2018-07-06T02:38:42.227Z,93.98
2018-07-06T02:41:22.111Z,93.58
2018-07-06T02:44:01.814Z,94.28
2018-07-06T02:46:41.611Z,93.86
2018-07-06T02:49:21.191Z,93.50
2018-07-06T02:52:00.982Z,92.75
2018-07-06T02:54:40.736Z,91.90
2018-07-06T02:57:20.536Z,92.80
2018-07-06T03:00:00.411Z,92.86
2018-07-06T03:02:40.171Z,91.36
2018-07-06T03:05:19.895Z,90.52
2018-07-06T03:07:59.616Z,90.75
2018-07-06T03:10:39.196Z,88.98
2018-07-06T03:13:18.999Z,88.64
2018-07-06T03:15:58.736Z,88.96
2018-07-06T03:18:38.436Z,88.59
2018-07-06T03:21:18.102Z,88.45
2018-07-06T03:23:57.651Z,88.85
2018-07-06T03:26:37.411Z,88.52
2018-07-06T03:29:17.457Z,89.28
2018-07-06T03:31:57.077Z,89.72
2018-07-06T03:34:36.719Z,91.48
2018-07-06T03:37:16.553Z,90.11
2018-07-06T03:39:56.300Z,90.25
2018-07-06T03:42:36.028Z,90.41
2018-07-06T03:45:15.763Z,89.24
2018-07-06T03:47:55.704Z,89.39
2018-07-06T03:50:35.548Z,90.29
2018-07-06T03:53:15.283Z,89.86
2018-07-06T03:55:55.133Z,90.22
2018-07-06T03:58:34.831Z,90.33
2018-07-06T04:01:14.487Z,89.95
2018-07-06T04:03:54.203Z,89.27
2018-07-06T04:06:33.930Z,89.46
2018-07-06T04:09:13.793Z,88.84
2018-07-06T04:11:53.632Z,88.46
2018-07-06T04:14:33.504Z,87.26
2018-07-06T04:17:13.351Z,87.64
2018-07-06T04:19:53.093Z,87.29
2018-07-06T04:22:32.777Z,86.63
2018-07-06T04:25:12.564Z,87.20
2018-07-06T04:27:52.316Z,87.45
2018-07-06T04:30:31.949Z,86.48
2018-07-06T04:33:11.823Z,84.72
2018-07-06T04:35:51.790Z,85.12
2018-07-06T04:38:31.615Z,83.98
2018-07-06T04:41:11.175Z,82.91
2018-07-06T04:43:51.161Z,82.83
2018-07-06T04:46:31.264Z,83.00
2018-07-06T04:49:10.758Z,83.01
2018-07-06T04:51:50.477Z,83.43
2018-07-06T04:54:30.347Z,84.29
2018-07-06T04:57:10.120Z,83.60
2018-07-06T04:59:49.977Z,83.82
2018-07-06T05:02:29.714Z,83.27
2018-07-06T05:05:09.644Z,82.81
2018-07-06T05:07:49.164Z,82.76
2018-07-06T05:10:28.975Z,82.52
2018-07-06T05:13:08.811Z,80.43
2018-07-06T05:15:48.445Z,80.22
2018-07-06T05:18:28.203Z,78.82
2018-07-06T05:21:07.975Z,76.51
2018-07-06T05:23:47.916Z,75.26
2018-07-06T05:26:27.631Z,73.23
2018-07-06T05:29:07.195Z,70.63
2018-07-06T05:31:46.984Z,70.07
2018-07-06T05:34:26.687Z,68.68
2018-07-06T05:37:06.787Z,67.43
2018-07-06T05:39:46.649Z,65.27
2018-07-06T05:42:26.298Z,64.20
2018-07-06T05:45:06.033Z,62.71
2018-07-06T05:47:45.834Z,61.52
2018-07-06T05:50:25.533Z,61.65
2018-07-06T05:53:05.246Z,60.41
2018-07-06T05:55:44.958Z,60.11
2018-07-06T05:58:24.748Z,57.91
2018-07-06T06:01:04.488Z,59.11
2018-07-06T06:03:44.260Z,59.78
2018-07-06T06:06:24.187Z,58.87
2018-07-06T06:08:51.598Z,57.53
2018-07-06T06:11:20.298Z,56.52
2018-07-06T06:13:48.967Z,57.96
2018-07-06T06:16:17.613Z,58.15
2018-07-06T06:18:46.349Z,58.62
2018-07-06T06:21:14.914Z,56.77
2018-07-06T06:23:43.573Z,56.47
2018-07-06T06:26:12.547Z,56.38
2018-07-06T06:28:41.263Z,55.60
2018-07-06T06:31:10.003Z,54.21
2018-07-06T06:33:39.081Z,55.11
2018-07-06T06:36:07.729Z,53.74
2018-07-06T06:38:36.424Z,53.46
2018-07-06T06:41:05.076Z,53.79
2018-07-06T06:43:33.783Z,54.92
2018-07-06T06:46:02.460Z,53.32
2018-07-06T06:48:31.119Z,53.77
2018-07-06T06:50:59.888Z,53.67
2018-07-06T06:53:28.589Z,52.83
2018-07-06T06:55:57.278Z,51.89
2018-07-06T06:58:26.080Z,50.23
2018-07-06T07:00:55.015Z,50.81
2018-07-06T07:03:24.191Z,51.68
2018-07-06T07:05:52.911Z,50.82
2018-07-06T07:08:21.842Z,51.65
2018-07-06T07:10:50.607Z,49.75
2018-07-06T07:13:19.420Z,49.74
2018-07-06T07:15:48.195Z,48.70
2018-07-06T07:18:16.902Z,49.26
2018-07-06T07:20:45.693Z,48.72
2018-07-06T07:23:14.689Z,46.84
2018-07-06T07:25:43.763Z,45.42
2018-07-06T07:28:12.570Z,47.79
2018-07-06T07:30:41.282Z,45.82
2018-07-06T07:33:10.050Z,45.39
2018-07-06T07:35:39.139Z,44.97
2018-07-06T07:38:07.839Z,44.83
2018-07-06T07:40:36.988Z,45.36
2018-07-06T07:43:05.692Z,44.57
2018-07-06T07:45:34.403Z,43.34
2018-07-06T07:48:03.206Z,41.52
2018-07-06T07:50:31.859Z,42.61
2018-07-06T07:53:11.668Z,43.91
2018-07-06T07:55:40.436Z,45.55
2018-07-06T07:58:09.178Z,45.34
2018-07-06T08:00:37.937Z,45.25
2018-07-06T08:03:06.834Z,44.56
2018-07-06T08:05:35.570Z,45.71
2018-07-06T08:08:04.313Z,43.82
2018-07-06T08:10:33.092Z,42.50
2018-07-06T08:13:01.939Z,42.44
2018-07-06T08:15:30.600Z,43.24
2018-07-06T08:17:59.244Z,39.77
2018-07-06T08:20:27.892Z,39.03
2018-07-06T08:22:56.799Z,39.40
2018-07-06T08:25:25.616Z,40.47
2018-07-06T08:27:55.434Z,40.36
2018-07-06T08:30:24.191Z,39.44
2018-07-06T08:32:52.992Z,39.74
2018-07-06T08:35:32.895Z,39.87
2018-07-06T08:38:06.567Z,40.18
2018-07-06T08:40:35.420Z,40.60
2018-07-06T08:43:05.308Z,38.37
2018-07-06T08:45:34.564Z,38.25
2018-07-06T08:48:03.311Z,36.79
2018-07-06T08:50:32.067Z,35.32
2018-07-06T08:53:00.714Z,36.07
2018-07-06T08:55:29.496Z,37.33
2018-07-06T08:57:58.906Z,38.46
2018-07-06T09:00:27.532Z,37.22
2018-07-06T09:02:56.146Z,36.36
2018-07-06T09:05:24.777Z,37.14
2018-07-06T09:07:53.488Z,37.71
2018-07-06T09:10:22.162Z,38.17
2018-07-06T09:12:50.815Z,36.73
2018-07-06T09:15:19.456Z,36.38
2018-07-06T09:17:48.073Z,34.92
2018-07-06T09:20:16.954Z,34.90
2018-07-06T09:22:45.434Z,34.48
2018-07-06T09:25:14.080Z,34.00
2018-07-06T09:27:42.706Z,34.60
2018-07-06T09:30:11.747Z,35.07
2018-07-06T09:32:40.390Z,36.34
2018-07-06T09:35:09.008Z,36.00
2018-07-06T09:37:37.656Z,34.42
2018-07-06T09:40:06.288Z,34.60
2018-07-06T09:42:34.950Z,35.43
2018-07-06T09:45:03.650Z,35.57
2018-07-06T09:47:32.318Z,35.47
2018-07-06T09:50:00.950Z,35.38
2018-07-06T09:52:29.624Z,37.55
2018-07-06T09:54:58.583Z,36.55
2018-07-06T09:57:27.285Z,36.44
2018-07-06T09:59:55.948Z,36.13
2018-07-06T10:02:24.571Z,35.32
2018-07-06T10:04:53.521Z,33.55
2018-07-06T10:07:22.176Z,33.38
2018-07-06T10:09:50.862Z,32.15
2018-07-06T10:12:19.419Z,31.11
2018-07-06T10:14:48.036Z,33.00
2018-07-06T10:17:16.699Z,33.32
2018-07-06T10:19:45.406Z,33.25
2018-07-06T10:22:14.021Z,32.60
2018-07-06T10:24:42.666Z,31.55
2018-07-06T10:27:11.433Z,31.32
2018-07-06T10:29:51.057Z,31.47
2018-07-06T10:32:24.213Z,31.94
2018-07-06T10:34:52.829Z,32.02
2018-07-06T10:37:21.723Z,31.13
2018-07-06T10:39:50.990Z,30.42
2018-07-06T10:42:19.723Z,32.34
2018-07-06T10:44:48.533Z,31.81
2018-07-06T10:47:17.379Z,32.27
2018-07-06T10:49:46.097Z,33.77
2018-07-06T10:52:16.435Z,34.93
2018-07-06T10:54:45.617Z,36.61
2018-07-06T10:57:14.296Z,37.88
2018-07-06T10:59:42.916Z,38.05
2018-07-06T11:02:11.656Z,38.03
2018-07-06T11:04:40.297Z,37.65
2018-07-06T11:07:08.918Z,37.24
2018-07-06T11:09:37.842Z,33.63
2018-07-06T11:12:06.524Z,32.69
2018-07-06T11:14:35.208Z,32.48
2018-07-06T11:17:04.124Z,33.04
2018-07-06T11:19:33.115Z,35.23
2018-07-06T11:22:01.804Z,34.82
2018-07-06T11:24:30.455Z,36.85
2018-07-06T11:26:59.087Z,36.98
2018-07-06T11:29:27.726Z,35.77
2018-07-06T11:31:56.359Z,33.62
2018-07-06T11:34:24.975Z,34.82
2018-07-06T11:36:53.656Z,31.99
2018-07-06T11:39:22.727Z,32.74
2018-07-06T11:41:51.392Z,34.12
2018-07-06T11:44:20.448Z,32.37
2018-07-06T11:46:49.138Z,32.10
2018-07-06T11:49:17.781Z,32.97
2018-07-06T11:51:46.475Z,32.80
2018-07-06T11:54:15.099Z,32.80
2018-07-06T11:56:43.798Z,34.32
2018-07-06T11:59:13.238Z,33.95
2018-07-06T12:01:41.973Z,32.39
2018-07-06T12:04:11.165Z,31.09
2018-07-06T12:06:39.800Z,31.78
2018-07-06T12:09:08.549Z,32.98
2018-07-06T12:11:37.326Z,32.79
2018-07-06T12:14:06.017Z,34.00
2018-07-06T12:16:34.728Z,33.59
2018-07-06T12:19:03.739Z,32.65
2018-07-06T12:21:32.474Z,35.46
2018-07-06T12:24:01.117Z,35.63
2018-07-06T12:26:29.787Z,35.84
2018-07-06T12:28:58.423Z,36.82
2018-07-06T12:31:27.056Z,36.42
2018-07-06T12:33:55.741Z,35.87
2018-07-06T12:36:24.448Z,35.75
2018-07-06T12:38:53.138Z,37.10
2018-07-06T12:41:22.582Z,36.07
2018-07-06T12:43:51.348Z,35.77
2018-07-06T12:46:20.013Z,37.69
2018-07-06T12:48:48.784Z,39.87
2018-07-06T12:51:17.423Z,39.54
2018-07-06T12:53:46.120Z,39.75
2018-07-06T12:56:15.887Z,38.67
2018-07-06T12:58:44.721Z,39.62
2018-07-06T13:01:13.321Z,39.29
2018-07-06T13:03:42.007Z,39.10
2018-07-06T13:06:10.720Z,39.70
2018-07-06T13:08:39.398Z,40.92
2018-07-06T13:11:08.092Z,38.98
2018-07-06T13:13:36.748Z,37.79
2018-07-06T13:16:05.803Z,38.49
2018-07-06T13:18:34.595Z,38.40
2018-07-06T13:21:03.316Z,38.46
2018-07-06T13:23:32.047Z,36.66
2018-07-06T13:26:00.824Z,35.54
2018-07-06T13:28:29.525Z,36.02
2018-07-06T13:30:58.279Z,36.61
2018-07-06T13:33:27.071Z,37.15
2018-07-06T13:35:55.704Z,37.56
2018-07-06T13:38:24.335Z,38.01
2018-07-06T13:40:53.076Z,39.72
2018-07-06T13:43:22.419Z,42.81
2018-07-06T13:45:51.132Z,44.41
2018-07-06T13:48:19.875Z,46.47
2018-07-06T13:50:48.533Z,46.18
2018-07-06T13:53:17.216Z,47.13
2018-07-06T13:55:45.907Z,46.39
2018-07-06T13:58:14.622Z,46.54
2018-07-06T14:00:43.334Z,47.12
2018-07-06T14:03:12.092Z,46.84
2018-07-06T14:05:40.766Z,46.19
2018-07-06T14:08:09.419Z,46.09
2018-07-06T14:10:38.416Z,46.27
2018-07-06T14:13:07.141Z,47.16
2018-07-06T14:15:35.833Z,47.82
2018-07-06T14:18:04.620Z,47.94
2018-07-06T14:20:33.284Z,48.38
2018-07-06T14:23:01.998Z,48.46
2018-07-06T14:25:30.679Z,50.42
2018-07-06T14:27:59.398Z,49.28
2018-07-06T14:30:28.150Z,51.15
2018-07-06T14:32:56.816Z,51.75
2018-07-06T14:35:25.559Z,51.38
2018-07-06T14:37:54.235Z,51.45
2018-07-06T14:40:22.895Z,53.35
2018-07-06T14:42:51.555Z,52.94
2018-07-06T14:45:20.255Z,52.57
2018-07-06T14:47:49.012Z,53.73
2018-07-06T14:50:17.825Z,54.75
2018-07-06T14:52:46.532Z,55.16
2018-07-06T14:55:15.396Z,53.69
2018-07-06T14:57:44.145Z,53.96
2018-07-06T15:00:13.004Z,55.81
2018-07-06T15:02:41.655Z,55.31
2018-07-06T15:05:10.436Z,56.36
2018-07-06T15:07:39.199Z,56.09
2018-07-06T15:10:07.927Z,55.77
2018-07-06T15:12:36.742Z,55.30
2018-07-06T15:15:05.439Z,55.75
2018-07-06T15:17:34.132Z,55.53
2018-07-06T15:20:02.875Z,54.77
2018-07-06T15:22:31.588Z,54.06
2018-07-06T15:25:00.318Z,53.51
2018-07-06T15:27:29.022Z,53.83
2018-07-06T15:29:57.723Z,53.80
2018-07-06T15:32:26.437Z,54.93
2018-07-06T15:34:55.131Z,55.03
2018-07-06T15:37:23.940Z,54.72
2018-07-06T15:39:52.626Z,53.79
2018-07-06T15:42:22.530Z,53.18
2018-07-06T15:44:51.223Z,52.60
2018-07-06T15:47:19.925Z,53.22
2018-07-06T15:49:48.745Z,52.89
2018-07-06T15:52:17.901Z,52.79
2018-07-06T15:54:47.486Z,52.30
2018-07-06T15:57:16.681Z,53.11
2018-07-06T15:59:45.274Z,53.35
2018-07-06T16:02:14.052Z,53.61
2018-07-06T16:04:42.717Z,54.50
2018-07-06T16:07:11.468Z,54.56
2018-07-06T16:09:40.130Z,54.65
2018-07-06T16:12:08.914Z,54.20
2018-07-06T16:14:37.615Z,54.02
2018-07-06T16:17:06.326Z,54.43
2018-07-06T16:19:35.106Z,53.83
2018-07-06T16:22:04.315Z,53.87
2018-07-06T16:24:32.976Z,53.40
2018-07-06T16:27:01.677Z,54.21
2018-07-06T16:29:30.330Z,54.50
2018-07-06T16:31:59.096Z,55.18
2018-07-06T16:34:27.827Z,55.11
2018-07-06T16:36:56.572Z,55.81
2018-07-06T16:39:25.234Z,55.63
2018-07-06T16:41:54.027Z,55.99
2018-07-06T16:44:22.740Z,56.05
2018-07-06T16:46:51.554Z,56.29
2018-07-06T16:49:20.199Z,56.25
2018-07-06T16:51:49.303Z,56.02
2018-07-06T16:54:18.035Z,56.04
2018-07-06T16:56:46.730Z,57.25
2018-07-06T16:59:15.467Z,57.84
2018-07-06T17:01:44.249Z,58.52
2018-07-06T17:04:12.918Z,58.75
2018-07-06T17:06:41.634Z,59.92
2018-07-06T17:09:10.373Z,59.87
2018-07-06T17:11:39.210Z,60.08
2018-07-06T17:14:07.998Z,59.84
2018-07-06T17:16:36.670Z,61.54
2018-07-06T17:19:05.334Z,61.26
2018-07-06T17:21:34.918Z,61.85
2018-07-06T17:24:03.599Z,61.73
2018-07-06T17:26:32.276Z,62.11
2018-07-06T17:29:00.925Z,62.91
2018-07-06T17:31:29.627Z,62.47
2018-07-06T17:33:58.459Z,62.32
2018-07-06T17:36:27.345Z,63.31
2018-07-06T17:38:56.081Z,62.69
2018-07-06T17:41:24.869Z,62.78
2018-07-06T17:43:53.650Z,62.88
2018-07-06T17:46:22.374Z,63.48
2018-07-06T17:48:51.075Z,63.42
2018-07-06T17:51:19.772Z,63.90
2018-07-06T17:53:48.466Z,63.13
2018-07-06T17:56:17.344Z,62.98
2018-07-06T17:58:46.627Z,63.64
2018-07-06T18:01:16.196Z,63.61
2018-07-06T18:03:45.435Z,64.97
2018-07-06T18:06:14.147Z,65.10
2018-07-06T18:08:43.622Z,65.29
2018-07-06T18:11:13.322Z,64.68
2018-07-06T18:13:42.087Z,66.02
2018-07-06T18:16:11.679Z,65.51
2018-07-06T18:18:40.743Z,66.35
2018-07-06T18:21:09.823Z,66.23
2018-07-06T18:23:38.904Z,66.28
2018-07-06T18:26:07.674Z,67.37
2018-07-06T18:28:36.571Z,67.91
2018-07-06T18:31:05.593Z,68.71
2018-07-06T18:33:34.487Z,70.05
2018-07-06T18:36:03.585Z,70.30
2018-07-06T18:38:32.774Z,71.06
2018-07-06T18:41:01.978Z,72.50
2018-07-06T18:43:30.732Z,73.60
2018-07-06T18:45:59.391Z,74.11
2018-07-06T18:48:28.118Z,73.81
2018-07-06T18:50:57.426Z,74.68
2018-07-06T18:53:26.199Z,75.99
2018-07-06T18:55:54.913Z,76.48
2018-07-06T18:58:23.669Z,77.29
2018-07-06T19:00:52.514Z,77.34
2018-07-06T19:03:21.316Z,76.44
2018-07-06T19:05:50.007Z,77.20
2018-07-06T19:08:18.731Z,77.83
2018-07-06T19:10:47.515Z,77.81
2018-07-06T19:13:16.214Z,78.63
2018-07-06T19:15:45.426Z,78.77
2018-07-06T19:18:14.181Z,78.08
2018-07-06T19:20:42.955Z,78.09
2018-07-06T19:23:11.631Z,77.65
2018-07-06T19:25:40.347Z,78.08
2018-07-06T19:28:09.023Z,77.72
2018-07-06T19:30:37.786Z,77.21
2018-07-06T19:33:06.516Z,77.95
2018-07-06T19:35:35.327Z,78.12
2018-07-06T19:38:04.004Z,77.74
2018-07-06T19:40:32.687Z,78.08
2018-07-06T19:43:01.340Z,77.39
2018-07-06T19:45:30.023Z,77.51
2018-07-06T19:47:58.721Z,77.89
2018-07-06T19:50:27.652Z,78.50
2018-07-06T19:52:56.330Z,77.95
2018-07-06T19:55:24.966Z,77.89
2018-07-06T19:57:53.703Z,77.99
2018-07-06T20:00:23.614Z,78.58
2018-07-06T20:02:54.574Z,79.74
2018-07-06T20:05:23.283Z,80.59
2018-07-06T20:07:52.935Z,80.45
2018-07-06T20:10:21.603Z,80.97
2018-07-06T20:12:50.310Z,81.01
2018-07-06T20:15:20.631Z,81.34
2018-07-06T20:17:50.506Z,81.57
2018-07-06T20:20:19.298Z,80.85
2018-07-06T20:22:48.123Z,81.33
2018-07-06T20:25:17.666Z,80.82
2018-07-06T20:27:46.408Z,81.15
2018-07-06T20:30:15.138Z,81.67
2018-07-06T20:32:44.234Z,81.08
2018-07-06T20:35:12.939Z,81.64
2018-07-06T20:37:41.616Z,81.75
2018-07-06T20:40:10.403Z,82.07
2018-07-06T20:42:39.129Z,81.51
2018-07-06T20:45:07.907Z,81.28
2018-07-06T20:47:36.901Z,81.95
2018-07-06T20:50:05.943Z,81.51
2018-07-06T20:52:34.617Z,81.78
2018-07-06T20:55:03.388Z,81.42
2018-07-06T20:57:32.144Z,81.52
2018-07-06T21:00:00.861Z,81.03
2018-07-06T21:02:29.671Z,81.91
2018-07-06T21:04:58.323Z,82.65
2018-07-06T21:07:26.959Z,83.34
2018-07-06T21:09:55.633Z,84.00
2018-07-06T21:12:24.348Z,83.26
2018-07-06T21:14:53.049Z,83.16
2018-07-06T21:17:22.090Z,83.15
2018-07-06T21:19:50.766Z,84.19
2018-07-06T21:22:19.558Z,83.73
2018-07-06T21:24:48.204Z,83.94
2018-07-06T21:27:16.850Z,83.01
2018-07-06T21:29:45.482Z,83.05
2018-07-06T21:32:14.224Z,82.45
2018-07-06T21:34:42.922Z,82.58
2018-07-06T21:37:11.646Z,82.25
2018-07-06T21:39:40.358Z,81.74
2018-07-06T21:42:09.111Z,81.74
2018-07-06T21:44:37.832Z,81.31
2018-07-06T21:47:06.498Z,81.39
2018-07-06T21:49:35.248Z,81.53
2018-07-06T21:52:03.993Z,81.81
2018-07-06T21:54:32.596Z,82.33
2018-07-06T21:57:01.271Z,82.20
2018-07-06T21:59:29.941Z,81.55
2018-07-06T22:01:58.599Z,81.42
2018-07-06T22:04:27.278Z,81.41
2018-07-06T22:06:55.954Z,81.62
2018-07-06T22:09:24.681Z,81.53
2018-07-06T22:11:53.390Z,81.41
2018-07-06T22:14:22.116Z,80.96
2018-07-06T22:16:50.835Z,81.74
2018-07-06T22:19:19.580Z,81.50
2018-07-06T22:21:48.316Z,81.72
2018-07-06T22:24:17.026Z,83.12
2018-07-06T22:26:45.865Z,82.76
2018-07-06T22:29:14.547Z,83.33
2018-07-06T22:31:43.232Z,85.24
2018-07-06T22:34:11.906Z,86.46
2018-07-06T22:36:40.648Z,86.84
2018-07-06T22:39:09.644Z,86.78
2018-07-06T22:41:38.347Z,86.66
2018-07-06T22:44:07.112Z,86.77
2018-07-06T22:46:35.883Z,85.99
2018-07-06T22:49:04.593Z,87.63
2018-07-06T22:51:33.256Z,88.18
2018-07-06T22:54:02.159Z,88.14
2018-07-06T22:56:30.820Z,88.04
2018-07-06T22:58:59.494Z,88.08
2018-07-06T23:01:28.250Z,88.04
2018-07-06T23:03:56.966Z,87.62
2018-07-06T23:06:25.724Z,87.67
2018-07-06T23:08:54.372Z,88.28
2018-07-06T23:11:23.114Z,87.90
2018-07-06T23:13:51.828Z,87.50
2018-07-06T23:16:20.555Z,87.88
2018-07-06T23:18:49.259Z,88.80
2018-07-06T23:21:17.970Z,89.21
2018-07-06T23:23:46.721Z,89.34
2018-07-06T23:26:15.388Z,89.20
2018-07-06T23:28:44.084Z,88.87
2018-07-06T23:31:13.380Z,88.87
2018-07-06T23:33:42.040Z,89.32
2018-07-06T23:36:10.691Z,88.70
2018-07-06T23:38:39.391Z,89.53
2018-07-06T23:41:08.031Z,88.62
2018-07-06T23:43:36.738Z,89.05
2018-07-06T23:46:05.451Z,89.16
2018-07-06T23:48:34.144Z,88.45
2018-07-06T23:51:02.804Z,89.24
2018-07-06T23:53:31.480Z,88.17
2018-07-06T23:56:00.121Z,89.05
2018-07-06T23:58:28.754Z,88.70
